Time;durP1;ratioP1;P1;durP2;ratioP2;P2;SDS_P1;SDS_P2;PMS_P1;PMS_P2;Temp;Humidity;BMP_temperature;BMP_pressure;BME280_temperature;BME280_humidity;BME280_pressure;Samples;Min_cycle;Max_cycle;Signal;HPM_P1;HPM_P2
2023/04/12 00:00:11;;;;;;;0.68;0.68;;;;;;;6.37;47.80;99369.69;4937327;29;20062;-90
2023/04/12 00:02:40;;;;;;;0.60;0.60;;;;;;;6.34;48.16;99370.13;4935562;29;20419;-89
2023/04/12 00:05:10;;;;;;;0.60;0.60;;;;;;;6.32;48.09;99366.81;4918086;29;20471;-90
2023/04/12 00:07:38;;;;;;;0.70;0.70;;;;;;;6.34;48.09;99367.44;4918581;29;20054;-89
2023/04/12 00:10:08;;;;;;;0.60;0.60;;;;;;;6.35;47.96;99363.72;4935322;29;20522;-90
2023/04/12 00:12:35;;;;;;;0.60;0.60;;;;;;;6.35;48.19;99369.06;4935241;29;20063;-89
2023/04/12 00:15:02;;;;;;;0.60;0.60;;;;;;;6.31;48.06;99364.38;4937399;29;20054;-91
2023/04/12 00:17:30;;;;;;;0.60;0.60;;;;;;;6.21;48.33;99364.78;4944060;29;20052;-89
2023/04/12 00:19:58;;;;;;;0.60;0.60;;;;;;;6.16;48.39;99360.03;4959325;29;20068;-90
2023/04/12 00:22:25;;;;;;;0.60;0.60;;;;;;;6.11;48.58;99356.34;4922059;29;20084;-90
2023/04/12 00:24:52;;;;;;;0.70;0.70;;;;;;;6.11;48.68;99359.00;4923041;29;20419;-89
2023/04/12 00:27:22;;;;;;;0.70;0.70;;;;;;;6.10;48.74;99368.06;4922859;29;20145;-89
2023/04/12 00:29:49;;;;;;;0.65;0.65;;;;;;;6.10;48.56;99362.72;4917708;29;20075;-88
2023/04/12 00:32:16;;;;;;;0.60;0.60;;;;;;;6.05;48.69;99361.50;4886885;29;20052;-87
2023/04/12 00:34:43;;;;;;;0.70;0.70;;;;;;;5.97;48.90;99367.03;4936798;29;20157;-88
2023/04/12 00:56:40;;;;;;;0.60;0.60;;;;;;;5.54;49.74;99356.66;4951682;29;20046;-89
2023/04/12 00:59:07;;;;;;;0.60;0.60;;;;;;;5.54;49.72;99356.66;4903650;29;20052;-88
2023/04/12 01:01:34;;;;;;;0.63;0.63;;;;;;;5.50;50.00;99351.94;4934317;29;20055;-88
2023/04/12 01:04:03;;;;;;;0.60;0.60;;;;;;;5.47;50.62;99355.84;4916948;29;20434;-88
2023/04/12 01:06:39;;;;;;;0.63;0.63;;;;;;;5.49;50.53;99355.63;4934486;29;20052;-88
2023/04/12 01:09:29;;;;;;;0.70;0.70;;;;;;;5.56;49.89;99354.59;4934007;29;20459;-88
2023/04/12 01:12:03;;;;;;;0.60;0.60;;;;;;;5.62;49.78;99353.81;4934267;29;20145;-88
2023/04/12 01:15:04;;;;;;;0.43;0.43;;;;;;;5.59;49.95;99348.84;4917292;29;20067;-87
2023/04/12 01:17:50;;;;;;;0.63;0.63;;;;;;;5.84;49.11;99346.38;4898530;29;20074;-87
2023/04/12 01:20:24;;;;;;;0.68;0.68;;;;;;;5.69;50.88;99345.75;4897920;29;20080;-88
2023/04/12 01:23:14;;;;;;;0.60;0.60;;;;;;;5.50;50.83;99342.03;4897908;29;20071;-89
2023/04/12 01:26:06;;;;;;;0.70;0.70;;;;;;;5.31;51.34;99337.47;4903858;29;20052;-88
2023/04/12 01:28:41;;;;;;;0.60;0.60;;;;;;;5.18;52.25;99335.56;4917149;29;20139;-88
2023/04/12 01:31:09;;;;;;;0.63;0.63;;;;;;;5.13;52.39;99338.03;4898849;29;20095;-89
2023/04/12 01:33:37;;;;;;;0.70;0.70;;;;;;;5.11;52.70;99343.56;4898939;29;20056;-89
2023/04/12 01:36:14;;;;;;;0.70;0.70;;;;;;;5.02;53.26;99339.44;4882320;29;20063;-89
2023/04/12 01:38:42;;;;;;;0.60;0.60;;;;;;;4.88;53.52;99335.06;4856339;29;20623;-89
2023/04/12 01:41:14;;;;;;;0.70;0.70;;;;;;;4.85;53.43;99338.13;4857754;29;20059;-89
2023/04/12 01:43:44;;;;;;;0.70;0.70;;;;;;;4.87;53.87;99336.09;4866367;29;20885;-89
2023/04/12 01:46:15;;;;;;;0.65;0.65;;;;;;;4.79;53.99;99329.06;4859791;29;20046;-89
2023/04/12 01:48:49;;;;;;;0.70;0.70;;;;;;;4.72;54.30;99334.38;4857132;29;20144;-89
2023/04/12 01:51:33;;;;;;;0.80;0.80;;;;;;;4.65;54.59;99325.50;4842214;29;20065;-89
2023/04/12 01:54:10;;;;;;;0.60;0.60;;;;;;;4.69;54.35;99332.09;4841599;29;20489;-90
2023/04/12 01:56:43;;;;;;;0.60;0.60;;;;;;;4.64;54.17;99326.53;4843595;29;20065;-88
2023/04/12 01:59:13;;;;;;;0.70;0.70;;;;;;;4.61;54.47;99324.25;4853414;29;20054;-88
2023/04/12 02:01:42;;;;;;;0.57;0.57;;;;;;;4.60;54.66;99329.78;4838986;29;20057;-87
2023/04/12 02:04:10;;;;;;;0.52;0.52;;;;;;;4.61;54.44;99332.28;4858279;29;20448;-89
2023/04/12 02:06:38;;;;;;;0.60;0.60;;;;;;;4.58;54.83;99327.28;4856763;29;20482;-88
2023/04/12 02:09:08;;;;;;;0.60;0.60;;;;;;;4.52;55.25;99326.25;4859249;29;20045;-88
2023/04/12 02:11:35;;;;;;;0.60;0.60;;;;;;;4.49;55.43;99326.66;4836917;29;21610;-86
2023/04/12 02:14:02;;;;;;;0.70;0.70;;;;;;;4.44;55.50;99323.75;4872612;29;20167;-86
2023/04/12 02:16:33;;;;;;;0.70;0.70;;;;;;;4.52;55.06;99320.91;4877036;29;20057;-87
2023/04/12 02:19:00;;;;;;;0.60;0.60;;;;;;;4.55;54.90;99323.16;4852743;29;20110;-85
2023/04/12 02:21:32;;;;;;;0.60;0.60;;;;;;;4.69;55.04;99321.41;4866236;29;20056;-92
2023/04/12 02:24:03;;;;;;;0.70;0.70;;;;;;;4.67;54.32;99326.13;4853819;29;20064;-81
2023/04/12 02:26:30;;;;;;;0.70;0.70;;;;;;;4.78;53.46;99319.38;4873469;29;20450;-82
2023/04/12 02:28:57;;;;;;;0.60;0.60;;;;;;;4.77;53.09;99310.53;4880987;29;20037;-86
2023/04/12 02:34:30;;;;;;;0.70;0.70;;;;;;;4.69;53.46;99305.38;4881069;29;20059;-85
2023/04/12 02:37:15;;;;;;;0.70;0.70;;;;;;;4.62;54.46;99328.56;4848713;29;20520;-89
2023/04/12 02:39:51;;;;;;;0.60;0.60;;;;;;;4.55;55.23;99319.69;4884815;29;20564;-85
2023/04/12 02:42:19;;;;;;;;;;;;;;;4.43;55.17;99329.28;4855911;29;20064;-84
2023/04/12 02:44:47;;;;;;;0.60;0.60;;;;;;;4.40;55.24;99319.78;4892185;29;19997;-83
2023/04/12 02:47:15;;;;;;;0.70;0.70;;;;;;;4.37;55.38;99328.22;4875852;23;20049;-88
2023/04/12 02:49:45;;;;;;;0.60;0.60;;;;;;;4.34;55.53;99324.09;4916781;29;20067;-91
2023/04/12 02:52:15;;;;;;;0.70;0.70;;;;;;;4.35;55.45;99319.56;4901160;29;20075;-86
2023/04/12 02:55:04;;;;;;;0.60;0.60;;;;;;;4.40;55.40;99327.00;4942129;23;20058;-87
2023/04/12 02:57:32;;;;;;;0.52;0.52;;;;;;;4.44;55.15;99325.59;4954447;29;20052;-86
2023/04/12 03:00:00;;;;;;;0.60;0.60;;;;;;;4.49;55.25;99323.16;4890316;29;20055;-84
2023/04/12 03:02:43;;;;;;;0.60;0.60;;;;;;;4.48;54.80;99318.81;4933915;29;20514;-87
2023/04/12 03:05:22;;;;;;;0.60;0.60;;;;;;;4.54;55.04;99328.72;4938560;29;20058;-86
2023/04/12 03:07:50;;;;;;;0.70;0.70;;;;;;;4.53;55.34;99332.41;4909881;29;20516;-85
2023/04/12 03:10:25;;;;;;;;;;;;;;;4.50;55.02;99328.28;4899936;29;20051;-86
2023/04/12 03:13:01;;;;;;;0.70;0.70;;;;;;;4.52;55.02;99317.41;4915459;29;19926;-86
2023/04/12 03:15:32;;;;;;;0.70;0.70;;;;;;;4.60;55.10;99333.28;4916111;29;20052;-85
2023/04/12 03:18:00;;;;;;;0.60;0.60;;;;;;;4.69;54.92;99334.78;4911537;29;20402;-86
2023/04/12 03:20:32;;;;;;;0.70;0.70;;;;;;;4.80;54.82;99332.56;4908239;29;20138;-83
2023/04/12 03:23:07;;;;;;;0.50;0.50;;;;;;;4.90;54.12;99322.31;4912426;29;20084;-86
2023/04/12 03:25:37;;;;;;;0.63;0.63;;;;;;;5.01;52.77;99327.06;4930335;29;20139;-87
2023/04/12 03:28:44;;;;;;;0.65;0.65;;;;;;;5.17;52.69;99334.75;4834733;29;20062;-85
2023/04/12 03:31:12;;;;;;;0.77;0.77;;;;;;;5.34;51.81;99331.69;4809010;29;20143;-86
2023/04/12 03:33:41;;;;;;;0.60;0.60;;;;;;;5.45;51.21;99330.31;4820617;29;20073;-86
2023/04/12 03:36:21;;;;;;;0.57;0.57;;;;;;;5.60;50.71;99345.16;4849214;29;20128;-86
2023/04/12 03:38:58;;;;;;;0.60;0.60;;;;;;;5.73;50.14;99346.19;4847469;29;20506;-87
2023/04/12 03:41:29;;;;;;;0.70;0.70;;;;;;;5.72;49.84;99336.50;4832912;29;20055;-85
2023/04/12 03:44:02;;;;;;;0.63;0.63;;;;;;;5.92;49.95;99347.22;4842826;29;20236;-86
2023/04/12 03:46:32;;;;;;;0.63;0.63;;;;;;;6.07;49.57;99347.88;4808285;29;20054;-87
2023/04/12 03:49:06;;;;;;;0.70;0.70;;;;;;;6.05;49.81;99336.53;4795569;29;20046;-87
2023/04/12 03:51:34;;;;;;;0.60;0.60;;;;;;;6.12;49.25;99336.53;4838727;29;20634;-86
2023/04/12 03:54:07;;;;;;;0.70;0.70;;;;;;;6.19;50.91;99348.06;4823351;29;20080;-87
2023/04/12 03:56:43;;;;;;;0.60;0.60;;;;;;;6.20;50.11;99341.66;4826538;29;20512;-86
2023/04/12 03:59:19;;;;;;;0.70;0.70;;;;;;;6.24;50.83;99348.28;4873726;29;20602;-86
2023/04/12 04:01:49;;;;;;;0.60;0.60;;;;;;;6.30;50.93;99355.47;4921992;29;20526;-87
2023/04/12 04:04:17;;;;;;;0.68;0.68;;;;;;;6.34;51.18;99356.72;4937058;29;20055;-86
2023/04/12 04:06:54;;;;;;;0.70;0.70;;;;;;;6.38;50.08;99357.97;4918330;29;20514;-86
2023/04/12 04:09:22;;;;;;;0.70;0.70;;;;;;;6.50;49.50;99360.81;4919579;29;20048;-89
2023/04/12 04:11:50;;;;;;;0.60;0.60;;;;;;;6.62;49.00;99366.38;4915732;29;20055;-89
2023/04/12 04:14:20;;;;;;;0.70;0.70;;;;;;;6.65;48.69;99364.06;4915635;29;20573;-87
2023/04/12 04:16:52;;;;;;;0.70;0.70;;;;;;;6.77;48.41;99369.63;4928417;29;20048;-88
2023/04/12 04:19:22;;;;;;;0.60;0.60;;;;;;;6.82;48.39;99369.81;4942326;29;20054;-84
2023/04/12 04:21:55;;;;;;;0.70;0.70;;;;;;;6.90;48.31;99361.53;4883050;29;20066;-88
2023/04/12 04:24:24;;;;;;;0.60;0.60;;;;;;;7.05;47.55;99357.75;4913381;29;20054;-88
2023/04/12 04:26:57;;;;;;;0.60;0.60;;;;;;;7.20;47.06;99358.31;4902371;29;20048;-87
2023/04/12 04:29:27;;;;;;;0.60;0.60;;;;;;;7.39;46.53;99359.22;4923334;29;20468;-88
2023/04/12 04:31:56;;;;;;;0.60;0.60;;;;;;;7.48;46.75;99354.44;4918533;29;20603;-85
2023/04/12 04:34:25;;;;;;;0.60;0.60;;;;;;;7.54;47.68;99364.31;4895287;29;20183;-85
2023/04/12 04:36:59;;;;;;;;;;;;;;;7.65;47.14;99352.91;4925969;29;20084;-84
2023/04/12 04:39:28;;;;;;;0.60;0.60;;;;;;;7.76;47.32;99367.50;4938148;29;19934;-85
2023/04/12 04:42:08;;;;;;;0.70;0.70;;;;;;;7.90;47.98;99365.53;4919558;29;20063;-87
2023/04/12 04:45:20;;;;;;;0.70;0.70;;;;;;;7.99;49.04;99356.97;4919787;29;20485;-89
2023/04/12 04:47:52;;;;;;;0.70;0.70;;;;;;;8.12;49.35;99352.53;4934760;29;20075;-88
2023/04/12 04:50:23;;;;;;;0.60;0.60;;;;;;;8.22;50.17;99364.44;4915619;29;20111;-88
2023/04/12 04:52:52;;;;;;;0.68;0.68;;;;;;;8.31;47.86;99366.88;4922818;29;20048;-87
2023/04/12 04:55:21;;;;;;;0.60;0.60;;;;;;;8.45;46.64;99368.41;4912014;29;20067;-88
2023/04/12 04:57:53;;;;;;;0.60;0.60;;;;;;;8.57;45.77;99355.88;4911181;29;20052;-86
2023/04/12 05:00:24;;;;;;;0.60;0.60;;;;;;;8.72;44.49;99357.38;4897509;29;20091;-86
2023/04/12 05:02:55;;;;;;;0.60;0.60;;;;;;;8.84;43.45;99352.91;4888079;29;20132;-85
2023/04/12 05:05:30;;;;;;;0.60;0.60;;;;;;;9.08;42.72;99367.31;4900645;29;20130;-87
2023/04/12 05:08:04;;;;;;;0.60;0.60;;;;;;;9.20;42.79;99359.31;4896482;29;20047;-86
2023/04/12 05:10:36;;;;;;;0.60;0.60;;;;;;;9.33;42.48;99367.19;4895510;29;20079;-88
2023/04/12 05:13:09;;;;;;;0.60;0.60;;;;;;;9.48;41.75;99364.91;4928702;29;20056;-84
2023/04/12 05:15:39;;;;;;;0.60;0.60;;;;;;;9.62;41.68;99356.63;4915826;29;20062;-84
2023/04/12 05:18:06;;;;;;;0.60;0.60;;;;;;;9.75;41.60;99365.38;4916243;29;20044;-86
2023/04/12 05:20:33;;;;;;;0.60;0.60;;;;;;;9.87;41.58;99357.28;4929592;29;20054;-85
2023/04/12 05:23:01;;;;;;;0.60;0.60;;;;;;;9.96;41.19;99369.38;4882523;29;20056;-86
2023/04/12 05:25:28;;;;;;;0.50;0.50;;;;;;;9.99;40.67;99357.31;4914328;29;20048;-86
2023/04/12 05:28:03;;;;;;;0.50;0.50;;;;;;;10.12;40.55;99365.19;4912760;29;20225;-86
2023/04/12 05:30:31;;;;;;;0.60;0.60;;;;;;;10.29;40.71;99362.66;4917674;29;20052;-85
2023/04/12 05:33:00;;;;;;;0.60;0.60;;;;;;;10.39;40.83;99351.28;4937019;29;20098;-85
2023/04/12 05:35:32;;;;;;;0.60;0.60;;;;;;;10.52;39.37;99364.53;4935732;29;20050;-84
2023/04/12 05:37:59;;;;;;;0.60;0.60;;;;;;;10.61;39.23;99363.13;4937727;29;20459;-85
2023/04/12 05:40:27;;;;;;;0.60;0.60;;;;;;;10.76;38.62;99367.22;4956169;29;20055;-86
2023/04/12 05:42:58;;;;;;;0.60;0.60;;;;;;;10.82;38.41;99366.28;4924066;29;20055;-85
2023/04/12 05:45:28;;;;;;;0.60;0.60;;;;;;;10.93;38.50;99361.91;4952886;29;20078;-85
2023/04/12 05:47:57;;;;;;;0.60;0.60;;;;;;;11.02;38.47;99361.31;4956239;28;20075;-85
2023/04/12 05:50:25;;;;;;;0.57;0.57;;;;;;;11.04;37.97;99351.09;4885139;29;20131;-85
2023/04/12 05:52:54;;;;;;;0.50;0.50;;;;;;;11.21;37.59;99361.94;4899971;29;20070;-84
2023/04/12 05:55:26;;;;;;;0.50;0.50;;;;;;;11.32;37.69;99362.16;4899789;29;20459;-84
2023/04/12 05:57:54;;;;;;;0.60;0.60;;;;;;;11.40;37.50;99357.19;4901810;29;20060;-84
2023/04/12 06:00:22;;;;;;;0.52;0.52;;;;;;;11.58;37.26;99380.50;4900152;29;20198;-85
2023/04/12 06:02:51;;;;;;;0.55;0.55;;;;;;;11.50;37.41;99362.78;4899744;29;20574;-85
2023/04/12 06:05:41;;;;;;;0.63;0.63;;;;;;;11.73;37.70;99379.16;4884740;29;20511;-85
2023/04/12 06:08:09;;;;;;;0.50;0.50;;;;;;;11.73;37.45;99366.44;4883662;29;20057;-86
2023/04/12 06:10:36;;;;;;;0.60;0.60;;;;;;;11.88;37.11;99368.63;4871269;29;20057;-86
2023/04/12 06:13:03;;;;;;;0.60;0.60;;;;;;;12.12;36.73;99372.00;4865287;29;20053;-86
2023/04/12 06:15:32;;;;;;;0.55;0.55;;;;;;;12.22;36.79;99369.47;4866471;29;20052;-87
2023/04/12 06:18:02;;;;;;;0.57;0.57;;;;;;;12.20;36.61;99371.59;4893505;29;20105;-85
2023/04/12 06:20:29;;;;;;;0.50;0.50;;;;;;;12.29;36.51;99375.53;4870251;29;20513;-86
2023/04/12 06:22:56;;;;;;;0.50;0.50;;;;;;;12.43;36.54;99367.91;4908833;29;20054;-86
2023/04/12 06:25:24;;;;;;;0.50;0.50;;;;;;;12.68;36.45;99372.03;4916461;29;20063;-85
2023/04/12 06:27:56;;;;;;;0.50;0.50;;;;;;;12.74;36.23;99360.22;4919620;29;20106;-86
2023/04/12 06:30:26;;;;;;;0.52;0.52;;;;;;;12.74;36.22;99358.31;4903510;29;20062;-88
2023/04/12 06:32:54;;;;;;;0.60;0.60;;;;;;;12.74;36.10;99354.81;4926897;29;20147;-85
2023/04/12 06:35:21;;;;;;;0.50;0.50;;;;;;;12.91;35.35;99362.88;4886301;29;20052;-85
2023/04/12 06:37:51;;;;;;;0.50;0.50;;;;;;;12.88;35.10;99356.06;4892398;29;20067;-85
2023/04/12 06:40:18;;;;;;;0.52;0.52;;;;;;;13.01;35.24;99347.59;4918377;29;20047;-86
2023/04/12 06:42:45;;;;;;;0.60;0.60;;;;;;;13.25;34.60;99349.22;4928398;29;20411;-85
2023/04/12 06:45:21;;;;;;;0.50;0.50;;;;;;;13.33;33.86;99352.31;4919766;29;20133;-86
2023/04/12 06:47:49;;;;;;;0.50;0.50;;;;;;;13.50;33.79;99352.22;4901290;29;20078;-85
2023/04/12 06:50:17;;;;;;;0.60;0.60;;;;;;;13.57;33.40;99352.00;4937374;29;20203;-85
2023/04/12 06:52:45;;;;;;;0.50;0.50;;;;;;;13.52;33.34;99349.25;4924430;29;20119;-84
2023/04/12 06:55:13;;;;;;;0.60;0.60;;;;;;;13.49;32.77;99361.41;4935911;29;20120;-84
2023/04/12 06:57:41;;;;;;;0.50;0.50;;;;;;;13.42;33.16;99339.13;4935400;29;20138;-83
2023/04/12 07:00:12;;;;;;;0.50;0.50;;;;;;;13.50;32.84;99341.38;4938357;29;20044;-85
2023/04/12 07:02:40;;;;;;;0.50;0.50;;;;;;;13.66;32.37;99347.78;4937294;29;20617;-85
2023/04/12 07:05:07;;;;;;;0.50;0.50;;;;;;;13.64;32.46;99330.94;4918749;29;20110;-85
2023/04/12 07:07:38;;;;;;;0.50;0.50;;;;;;;13.83;32.41;99353.91;4935945;29;20403;-85
2023/04/12 07:10:06;;;;;;;0.50;0.50;;;;;;;13.71;32.76;99338.88;4918191;29;20385;-86
2023/04/12 07:12:33;;;;;;;0.50;0.50;;;;;;;13.98;32.41;99347.00;4935941;29;20068;-87
2023/04/12 07:15:01;;;;;;;0.50;0.50;;;;;;;13.86;31.81;99333.59;4935241;29;20111;-83
2023/04/12 07:17:29;;;;;;;0.50;0.50;;;;;;;14.01;32.07;99332.91;4918706;29;20062;-86
2023/04/12 07:20:21;;;;;;;0.50;0.50;;;;;;;14.39;31.85;99341.88;4904080;29;20051;-86
2023/04/12 07:22:51;;;;;;;;;;;;;;;14.51;32.15;99345.22;4937741;29;20043;-85
2023/04/12 07:25:18;;;;;;;0.60;0.60;;;;;;;14.62;32.09;99344.22;4937518;29;20012;-85
2023/04/12 07:27:45;;;;;;;0.50;0.50;;;;;;;14.83;30.94;99350.56;4938962;29;20090;-85
2023/04/12 07:30:12;;;;;;;0.60;0.60;;;;;;;14.81;30.14;99350.03;4937507;29;20048;-85
2023/04/12 07:32:39;;;;;;;0.50;0.50;;;;;;;14.76;31.04;99344.53;4936584;29;20646;-86
2023/04/12 07:35:07;;;;;;;0.60;0.60;;;;;;;14.95;30.14;99344.94;4939405;29;20054;-84
2023/04/12 07:37:34;;;;;;;0.55;0.55;;;;;;;15.06;29.61;99351.22;4954555;29;20051;-86
2023/04/12 07:40:11;;;;;;;0.50;0.50;;;;;;;15.01;29.80;99345.75;4955526;29;20499;-84
2023/04/12 07:42:41;;;;;;;0.50;0.50;;;;;;;15.02;29.85;99350.13;4954557;29;20200;-84
2023/04/12 07:45:11;;;;;;;0.50;0.50;;;;;;;15.08;29.19;99330.84;4937819;29;20142;-84
2023/04/12 07:47:38;;;;;;;0.50;0.50;;;;;;;15.15;29.56;99325.16;4956870;29;20055;-84
2023/04/12 07:50:07;;;;;;;0.60;0.60;;;;;;;15.40;29.63;99329.88;4941124;29;20051;-84
2023/04/12 07:52:40;;;;;;;0.50;0.50;;;;;;;15.68;28.93;99330.47;4956816;29;20054;-84
2023/04/12 07:55:08;;;;;;;0.60;0.60;;;;;;;15.76;29.11;99332.69;4937193;29;20063;-84
2023/04/12 07:57:36;;;;;;;0.60;0.60;;;;;;;16.06;28.79;99337.31;4948460;29;20047;-83
2023/04/12 08:00:04;;;;;;;0.60;0.60;;;;;;;16.21;28.60;99334.59;4916709;29;20400;-84
2023/04/12 08:02:39;;;;;;;0.60;0.60;;;;;;;16.44;27.91;99316.84;4935082;29;20503;-85
2023/04/12 08:05:09;;;;;;;0.50;0.50;;;;;;;16.72;27.42;99322.78;4920862;29;20051;-83
2023/04/12 08:07:36;;;;;;;0.50;0.50;;;;;;;16.78;27.33;99313.50;4937961;29;20375;-85
2023/04/12 08:10:03;;;;;;;0.50;0.50;;;;;;;16.72;27.57;99316.53;4925537;29;20067;-85
2023/04/12 08:12:30;;;;;;;0.60;0.60;;;;;;;16.79;27.26;99315.16;4914577;29;20056;-85
2023/04/12 08:14:58;;;;;;;0.60;0.60;;;;;;;17.01;27.62;99309.34;4915473;29;20055;-84
2023/04/12 08:17:29;;;;;;;0.60;0.60;;;;;;;17.19;26.76;99316.09;4916165;29;20092;-85
2023/04/12 08:19:56;;;;;;;0.50;0.50;;;;;;;17.20;26.67;99306.00;4914127;29;20082;-84
2023/04/12 08:22:23;;;;;;;0.60;0.60;;;;;;;17.44;26.44;99315.13;4915921;29;20530;-84
2023/04/12 08:24:51;;;;;;;0.60;0.60;;;;;;;17.52;26.06;99298.16;4914232;29;20052;-85
2023/04/12 08:27:18;;;;;;;0.60;0.60;;;;;;;17.88;26.05;99297.94;4916011;29;20058;-85
2023/04/12 08:29:46;;;;;;;0.70;0.70;;;;;;;18.18;25.68;99299.59;4915249;29;20138;-85
2023/04/12 08:32:13;;;;;;;0.60;0.60;;;;;;;18.28;26.13;99290.47;4917953;29;20055;-84
2023/04/12 08:34:40;;;;;;;0.60;0.60;;;;;;;18.61;24.52;99307.91;4936280;29;20425;-85
2023/04/12 08:37:09;;;;;;;0.60;0.60;;;;;;;18.74;23.84;99286.44;4953261;29;20086;-86
2023/04/12 08:39:36;;;;;;;0.60;0.60;;;;;;;19.01;24.03;99289.38;4936393;29;20074;-86
2023/04/12 08:42:09;;;;;;;0.60;0.60;;;;;;;19.49;23.52;99294.75;4952901;29;20510;-86
2023/04/12 08:44:38;;;;;;;0.60;0.60;;;;;;;19.87;23.31;99302.94;4953511;29;20138;-86
2023/04/12 08:47:09;;;;;;;0.60;0.60;;;;;;;20.09;22.81;99301.50;4953265;29;20047;-86
2023/04/12 08:49:37;;;;;;;0.60;0.60;;;;;;;20.33;22.36;99283.00;4953161;29;20070;-86
2023/04/12 08:52:05;;;;;;;0.60;0.60;;;;;;;20.67;22.58;99290.06;4935688;29;20061;-85
2023/04/12 08:54:33;;;;;;;0.50;0.50;;;;;;;20.35;22.44;99288.97;4961136;29;20450;-85
2023/04/12 08:57:02;;;;;;;0.50;0.50;;;;;;;20.40;21.99;99276.28;4937864;29;20054;-86
2023/04/12 08:59:31;;;;;;;0.60;0.60;;;;;;;20.52;22.05;99285.66;4941966;29;20514;-84
2023/04/12 09:01:58;;;;;;;0.57;0.57;;;;;;;20.82;22.14;99294.44;4939618;29;20681;-85
2023/04/12 09:04:26;;;;;;;0.60;0.60;;;;;;;21.03;21.32;99281.09;4933621;29;20043;-85
2023/04/12 09:06:54;;;;;;;0.50;0.50;;;;;;;21.20;21.25;99286.75;4933661;29;20052;-86
2023/04/12 09:09:41;;;;;;;0.50;0.50;;;;;;;21.29;21.52;99280.53;4913354;29;20052;-85
2023/04/12 09:12:10;;;;;;;0.60;0.60;;;;;;;21.35;21.60;99271.06;4914517;29;20056;-86
2023/04/12 09:14:38;;;;;;;0.50;0.50;;;;;;;21.45;20.74;99281.06;4914978;29;20056;-86
2023/04/12 09:17:23;;;;;;;0.50;0.50;;;;;;;21.49;20.53;99280.09;4914393;29;20099;-86
2023/04/12 09:19:52;;;;;;;0.50;0.50;;;;;;;21.70;20.10;99276.88;4914617;29;20582;-86
2023/04/12 09:22:32;;;;;;;0.60;0.60;;;;;;;21.95;19.58;99268.03;4898349;29;20404;-86
2023/04/12 09:24:59;;;;;;;0.60;0.60;;;;;;;22.45;18.94;99272.50;4914432;29;20044;-87
2023/04/12 09:27:28;;;;;;;0.50;0.50;;;;;;;22.88;18.68;99261.66;4923737;29;20065;-86
2023/04/12 09:30:08;;;;;;;0.60;0.60;;;;;;;22.77;19.48;99260.34;4935455;29;20540;-86
2023/04/12 09:32:39;;;;;;;0.60;0.60;;;;;;;23.00;19.22;99260.25;4912623;29;20051;-84
2023/04/12 09:35:06;;;;;;;0.60;0.60;;;;;;;23.33;18.42;99246.84;4906696;29;20062;-87
2023/04/12 09:37:33;;;;;;;0.50;0.50;;;;;;;23.44;18.01;99255.59;4932245;29;20063;-90
2023/04/12 09:40:03;;;;;;;0.50;0.50;;;;;;;23.51;18.63;99247.66;4921521;29;20045;-89
2023/04/12 09:42:32;;;;;;;0.50;0.50;;;;;;;23.73;18.07;99246.72;4921821;29;20419;-88
2023/04/12 09:45:23;;;;;;;0.50;0.50;;;;;;;23.68;18.34;99249.59;4930289;29;20051;-87
2023/04/12 09:47:52;;;;;;;0.50;0.50;;;;;;;23.19;18.72;99246.19;4930251;29;20047;-89
2023/04/12 09:50:27;;;;;;;0.50;0.50;;;;;;;22.98;18.79;99244.06;4913515;29;20051;-86
2023/04/12 09:52:55;;;;;;;0.57;0.57;;;;;;;22.94;19.11;99238.38;4922759;29;20067;-86
2023/04/12 09:55:25;;;;;;;0.50;0.50;;;;;;;23.61;18.79;99238.25;4911411;29;20052;-87
2023/04/12 09:57:54;;;;;;;0.50;0.50;;;;;;;24.13;18.15;99238.19;4907988;29;20056;-87
2023/04/12 10:00:24;;;;;;;0.60;0.60;;;;;;;24.23;17.52;99230.38;4897475;29;20079;-88
2023/04/12 10:02:53;;;;;;;0.50;0.50;;;;;;;24.34;17.76;99238.28;4897372;29;20082;-86
2023/04/12 10:05:26;;;;;;;0.50;0.50;;;;;;;24.88;17.87;99227.47;4933024;29;20051;-93
2023/04/12 10:07:57;;;;;;;0.50;0.50;;;;;;;25.07;17.55;99236.13;4902043;29;20055;-89
2023/04/12 10:10:30;;;;;;;0.50;0.50;;;;;;;24.93;16.97;99243.84;4903105;29;20051;-91
2023/04/12 10:13:04;;;;;;;0.50;0.50;;;;;;;24.44;18.08;99230.44;4904443;29;20115;-91
2023/04/12 10:15:51;;;;;;;0.50;0.50;;;;;;;24.58;17.86;99216.44;4891054;29;20052;-90
2023/04/12 10:18:22;;;;;;;0.50;0.50;;;;;;;24.50;17.83;99225.59;4898663;29;20060;-88
2023/04/12 10:20:50;;;;;;;0.50;0.50;;;;;;;24.85;17.50;99212.41;4923264;29;20059;-88
2023/04/12 10:23:19;;;;;;;0.50;0.50;;;;;;;25.16;17.43;99208.47;4900966;29;20051;-90
2023/04/12 10:25:52;;;;;;;0.50;0.50;;;;;;;24.96;17.47;99212.00;4916217;29;20078;-89
2023/04/12 10:28:21;;;;;;;0.50;0.50;;;;;;;25.12;16.99;99201.16;4905432;29;20519;-87
2023/04/12 10:30:56;;;;;;;0.50;0.50;;;;;;;25.60;16.80;99206.16;4875249;29;20044;-90
2023/04/12 10:33:29;;;;;;;0.50;0.50;;;;;;;25.97;16.30;99206.28;4915204;29;20107;-88
2023/04/12 10:36:07;;;;;;;0.50;0.50;;;;;;;26.41;16.26;99216.84;4907673;29;20052;-87
2023/04/12 10:39:07;;;;;;;0.50;0.50;;;;;;;26.47;16.39;99198.88;4912479;29;20051;-86
2023/04/12 10:41:36;;;;;;;0.50;0.50;;;;;;;26.28;16.18;99211.31;4918500;29;20070;-89
2023/04/12 10:44:22;;;;;;;0.50;0.50;;;;;;;26.31;15.60;99198.75;4928165;29;20052;-89
2023/04/12 10:46:52;;;;;;;0.50;0.50;;;;;;;26.46;16.05;99189.75;4917795;29;20052;-87
2023/04/12 10:49:38;;;;;;;0.50;0.50;;;;;;;26.09;15.86;99184.19;4938028;29;20083;-87
2023/04/12 10:52:12;;;;;;;0.50;0.50;;;;;;;26.26;15.60;99180.41;4933040;29;20064;-87
2023/04/12 10:54:40;;;;;;;0.40;0.40;;;;;;;26.84;15.25;99179.47;4925147;29;20060;-89
2023/04/12 10:57:42;;;;;;;0.40;0.40;;;;;;;26.90;15.41;99173.34;4900642;29;20119;-87
2023/04/12 11:00:10;;;;;;;0.50;0.50;;;;;;;27.19;15.25;99169.50;4911467;29;20062;-88
2023/04/12 11:03:04;;;;;;;0.40;0.40;;;;;;;27.10;15.11;99154.97;4927717;29;20483;-87
2023/04/12 11:06:04;;;;;;;0.50;0.50;;;;;;;26.87;14.94;99162.19;4935243;29;20058;-89
2023/04/12 11:09:40;;;;;;;0.40;0.40;;;;;;;27.27;14.59;99158.59;4906772;29;20085;-88
2023/04/12 11:12:14;;;;;;;0.40;0.40;;;;;;;27.15;14.60;99149.16;4935014;29;20134;-87
2023/04/12 11:14:48;;;;;;;0.40;0.40;;;;;;;26.94;14.46;99143.00;4921716;29;20142;-88
2023/04/12 11:17:20;;;;;;;0.50;0.50;;;;;;;27.26;14.40;99132.88;4914893;29;20044;-87
2023/04/12 11:19:59;;;;;;;0.40;0.40;;;;;;;27.54;14.38;99127.31;4912272;29;20507;-89
2023/04/12 11:22:28;;;;;;;0.40;0.40;;;;;;;27.63;14.77;99136.28;4926293;29;20058;-87
2023/04/12 11:25:00;;;;;;;0.40;0.40;;;;;;;27.77;13.77;99129.50;4918934;29;20052;-89
2023/04/12 11:27:30;;;;;;;0.50;0.50;;;;;;;27.72;14.44;99130.56;4936882;29;20075;-89
2023/04/12 11:29:58;;;;;;;0.40;0.40;;;;;;;27.58;14.36;99127.41;4935685;29;20106;-88
2023/04/12 11:32:28;;;;;;;0.47;0.47;;;;;;;26.95;14.23;99131.56;4930790;29;20066;-88
2023/04/12 11:34:56;;;;;;;0.40;0.40;;;;;;;27.46;14.77;99136.59;4939576;29;20056;-88
2023/04/12 11:37:30;;;;;;;0.40;0.40;;;;;;;27.20;14.84;99134.31;4906068;29;20067;-89
2023/04/12 11:39:58;;;;;;;0.50;0.50;;;;;;;27.49;15.05;99124.78;4886715;29;20075;-89
2023/04/12 11:42:29;;;;;;;0.43;0.43;;;;;;;27.27;14.91;99108.75;4889934;29;20047;-87
2023/04/12 11:44:56;;;;;;;0.50;0.50;;;;;;;27.14;14.99;99117.06;4901894;29;20087;-88
2023/04/12 11:47:34;;;;;;;0.50;0.50;;;;;;;27.85;14.44;99117.44;4922605;29;20587;-88
2023/04/12 11:50:02;;;;;;;0.40;0.40;;;;;;;28.00;13.92;99118.59;4919638;29;20043;-87
2023/04/12 11:52:31;;;;;;;0.47;0.47;;;;;;;27.41;14.30;99126.56;4924607;29;20079;-89
2023/04/12 11:55:09;;;;;;;0.50;0.50;;;;;;;27.41;13.68;99123.00;4901578;29;20068;-89
2023/04/12 11:57:38;;;;;;;0.47;0.47;;;;;;;27.69;13.62;99116.59;4866639;29;20148;-87
2023/04/12 12:00:08;;;;;;;0.40;0.40;;;;;;;27.54;13.93;99132.84;4882294;29;20056;-86
2023/04/12 12:02:38;;;;;;;0.40;0.40;;;;;;;27.35;13.82;99111.38;4916118;29;20060;-87
2023/04/12 12:05:18;;;;;;;0.40;0.40;;;;;;;28.43;13.48;99108.53;4899073;29;20140;-86
2023/04/12 12:07:46;;;;;;;0.40;0.40;;;;;;;28.87;13.30;99106.38;4905806;29;20075;-85
2023/04/12 12:10:16;;;;;;;0.40;0.40;;;;;;;28.59;13.38;99105.75;4886409;29;20254;-86
2023/04/12 12:13:11;;;;;;;0.40;0.40;;;;;;;28.87;13.03;99091.69;4896634;29;20804;-89
2023/04/12 12:15:43;;;;;;;0.40;0.40;;;;;;;28.70;13.68;99098.47;4910885;29;20115;-86
2023/04/12 12:18:10;;;;;;;0.40;0.40;;;;;;;29.17;12.92;99094.72;4890304;29;20060;-86
2023/04/12 12:20:51;;;;;;;0.40;0.40;;;;;;;28.90;12.96;99083.44;4893734;29;20557;-88
2023/04/12 12:23:31;;;;;;;0.40;0.40;;;;;;;28.26;13.25;99082.00;4872258;29;20052;-86